Time;durP1;ratioP1;P1;durP2;ratioP2;P2;SDS_P1;SDS_P2;PMS_P1;PMS_P2;Temp;Humidity;BMP_temperature;BMP_pressure;BME280_temperature;BME280_humidity;BME280_pressure;Samples;Min_cycle;Max_cycle;Signal;HPM_P1;HPM_P2
2023/03/19 00:03:38;;;;;;;27.75;14.48;;;1.70;99.90;;;;;;21085329;28;20032;-50
2023/03/19 00:13:40;;;;;;;25.50;13.18;;;1.60;99.90;;;;;;21082895;28;20098;-47
2023/03/19 00:23:42;;;;;;;24.83;13.75;;;1.40;99.90;;;;;;21064271;28;20493;-48
2023/03/19 00:33:44;;;;;;;24.60;13.40;;;1.30;99.90;;;;;;21081200;28;20032;-49
2023/03/19 00:43:46;;;;;;;21.65;11.63;;;1.40;99.90;;;;;;21080143;28;20032;-49
2023/03/19 00:53:49;;;;;;;24.00;10.82;;;1.30;99.90;;;;;;21062018;28;20105;-45
2023/03/19 01:03:50;;;;;;;22.70;11.95;;;1.00;99.90;;;;;;21078993;28;20032;-48
2023/03/19 01:13:52;;;;;;;21.15;12.10;;;1.00;99.90;;;;;;21078349;28;20040;-46
2023/03/19 01:23:54;;;;;;;22.98;12.43;;;1.00;99.90;;;;;;21059651;28;20047;-49
2023/03/19 01:33:58;;;;;;;25.92;12.75;;;1.00;99.90;;;;;;21058343;28;20036;-47
2023/03/19 01:44:31;;;;;;;20.30;11.25;;;1.20;99.90;;;;;;21057953;28;20385;-50
2023/03/19 01:54:55;;;;;;;18.10;10.00;;;1.30;99.90;;;;;;21061548;28;20055;-46
2023/03/19 02:05:26;;;;;;;18.88;9.73;;;1.20;99.90;;;;;;21070713;28;20066;-48
2023/03/19 02:15:31;;;;;;;18.85;9.73;;;1.20;99.90;;;;;;21054889;28;20082;-47
2023/03/19 02:25:44;;;;;;;19.55;9.70;;;1.30;99.90;;;;;;21072425;28;20054;-46
2023/03/19 02:35:49;;;;;;;16.63;9.02;;;1.50;99.90;;;;;;21072952;28;20366;-46
2023/03/19 02:45:53;;;;;;;15.52;8.40;;;1.60;99.90;;;;;;21053070;28;20032;-47
2023/03/19 02:55:55;;;;;;;13.48;7.57;;;1.40;99.90;;;;;;21035690;28;20330;-47
2023/03/19 03:05:56;;;;;;;13.05;7.40;;;1.20;99.90;;;;;;21070173;28;20039;-47
2023/03/19 03:15:58;;;;;;;12.88;6.85;;;1.40;99.90;;;;;;20982397;28;20033;-49
2023/03/19 03:25:59;;;;;;;12.15;6.90;;;1.30;99.90;;;;;;20911036;28;20429;-46
2023/03/19 03:36:01;;;;;;;10.52;5.95;;;1.30;99.90;;;;;;20985599;28;20106;-47
2023/03/19 03:46:03;;;;;;;11.27;6.00;;;1.40;99.90;;;;;;20985572;28;20036;-49
2023/03/19 03:56:05;;;;;;;14.13;7.75;;;1.70;99.90;;;;;;20984399;28;20398;-46
2023/03/19 04:06:13;;;;;;;13.20;7.55;;;1.90;99.90;;;;;;20940050;28;20032;-48
2023/03/19 04:16:15;;;;;;;15.05;7.32;;;2.00;99.90;;;;;;20980127;28;20090;-46
2023/03/19 04:26:17;;;;;;;13.88;7.57;;;2.10;99.90;;;;;;20980785;28;20033;-45
2023/03/19 04:36:18;;;;;;;13.13;7.60;;;2.00;99.90;;;;;;20997674;28;20047;-47
2023/03/19 04:46:20;;;;;;;16.40;8.55;;;1.80;99.90;;;;;;20978710;28;20036;-46
2023/03/19 04:56:22;;;;;;;13.32;7.63;;;1.40;99.90;;;;;;20996066;28;20474;-49
2023/03/19 05:06:25;;;;;;;17.35;9.25;;;1.10;99.90;;;;;;20975959;28;20025;-49
2023/03/19 05:16:29;;;;;;;19.45;10.30;;;1.00;99.90;;;;;;20992341;28;20056;-49
2023/03/19 05:26:31;;;;;;;16.08;8.90;;;0.80;99.90;;;;;;20975530;28;20040;-48
2023/03/19 05:37:05;;;;;;;27.85;11.98;;;0.70;99.90;;;;;;20976340;28;20071;-48
2023/03/19 05:47:09;;;;;;;20.23;9.98;;;0.50;99.90;;;;;;20973774;28;20037;-46
2023/03/19 05:57:14;;;;;;;20.42;10.77;;;0.40;99.90;;;;;;20973035;28;20028;-49
2023/03/19 06:07:23;;;;;;;16.40;8.20;;;0.50;99.90;;;;;;20972471;28;20098;-47
2023/03/19 06:17:26;;;;;;;20.77;10.95;;;0.50;99.90;;;;;;20971414;28;20028;-45
2023/03/19 06:27:30;;;;;;;24.58;12.15;;;0.70;99.90;;;;;;20970641;28;20473;-45
2023/03/19 06:37:44;;;;;;;28.58;14.50;;;1.00;99.90;;;;;;20967405;28;20035;-49
2023/03/19 06:47:46;;;;;;;32.72;17.42;;;1.70;99.90;;;;;;20986789;28;20474;-49
2023/03/19 06:57:49;;;;;;;31.48;16.63;;;2.40;99.90;;;;;;20987030;28;20024;-48
2023/03/19 07:07:51;;;;;;;36.42;20.33;;;3.20;99.90;;;;;;20986793;28;20536;-49
2023/03/19 07:17:52;;;;;;;32.92;19.70;;;4.00;99.90;;;;;;20985955;28;20036;-51
2023/03/19 07:27:54;;;;;;;37.10;21.00;;;4.90;99.90;;;;;;20985583;28;20020;-49
2023/03/19 07:37:55;;;;;;;34.42;20.45;;;5.50;99.90;;;;;;20985681;28;20363;-47
2023/03/19 07:47:57;;;;;;;30.83;17.85;;;6.00;99.90;;;;;;20985033;28;20098;-49
2023/03/19 07:57:59;;;;;;;26.85;16.70;;;6.40;99.90;;;;;;20996046;28;20501;-47
2023/03/19 08:08:00;;;;;;;29.15;18.45;;;6.50;99.90;;;;;;20999615;28;20062;-46
2023/03/19 08:18:03;;;;;;;30.33;18.92;;;6.70;99.90;;;;;;20998675;28;20098;-49
2023/03/19 08:28:06;;;;;;;25.60;17.10;;;7.10;99.90;;;;;;20997394;28;20111;-49
2023/03/19 08:38:07;;;;;;;25.58;16.63;;;8.40;99.90;;;;;;20998301;28;20089;-47
2023/03/19 08:48:09;;;;;;;24.02;16.48;;;9.00;99.90;;;;;;20996525;28;20028;-49
2023/03/19 08:58:11;;;;;;;22.90;15.27;;;9.40;99.90;;;;;;20996728;28;20054;-49
2023/03/19 09:08:13;;;;;;;22.52;14.73;;;10.20;99.90;;;;;;20995196;28;20064;-49
2023/03/19 09:18:15;;;;;;;23.58;15.10;;;10.40;99.90;;;;;;20993370;28;20580;-50
2023/03/19 09:28:18;;;;;;;21.90;14.88;;;10.20;99.90;;;;;;20993736;28;20035;-52
2023/03/19 09:38:21;;;;;;;23.90;14.77;;;10.10;99.90;;;;;;20976482;28;20041;-52
2023/03/19 09:48:39;;;;;;;21.08;14.43;;;10.20;99.90;;;;;;20973409;28;20028;-51
2023/03/19 09:58:42;;;;;;;23.17;14.45;;;10.70;99.90;;;;;;20990930;28;20363;-50
2023/03/19 10:09:02;;;;;;;20.50;14.52;;;10.80;99.90;;;;;;20989975;28;20045;-52
2023/03/19 10:19:05;;;;;;;23.30;15.30;;;11.00;99.90;;;;;;20970091;28;20101;-51
2023/03/19 10:29:11;;;;;;;25.88;17.52;;;11.20;99.90;;;;;;20989644;28;20548;-54
2023/03/19 10:39:17;;;;;;;27.27;18.45;;;10.50;99.90;;;;;;20988556;28;20478;-47
2023/03/19 10:49:18;;;;;;;28.20;17.02;;;10.10;99.90;;;;;;20987848;28;20086;-49
2023/03/19 10:59:31;;;;;;;28.88;17.48;;;10.50;99.90;;;;;;20986809;28;20056;-52
2023/03/19 11:09:36;;;;;;;26.90;18.05;;;10.90;99.90;;;;;;20987634;28;20047;-48
2023/03/19 11:19:47;;;;;;;23.20;16.60;;;11.70;99.90;;;;;;20986045;28;20054;-47
2023/03/19 11:29:49;;;;;;;22.33;16.45;;;12.40;99.90;;;;;;20994362;28;20129;-50
2023/03/19 11:40:10;;;;;;;23.58;16.27;;;12.60;99.90;;;;;;21003033;28;20036;-49
2023/03/19 11:50:23;;;;;;;18.65;13.25;;;12.80;99.90;;;;;;21001809;28;20032;-48
2023/03/19 12:00:51;;;;;;;21.48;14.57;;;13.10;99.90;;;;;;21001071;28;20033;-47
2023/03/19 12:11:09;;;;;;;20.40;14.82;;;12.90;99.90;;;;;;20924211;28;20559;-49
2023/03/19 12:21:17;;;;;;;23.58;15.07;;;12.40;99.90;;;;;;20999347;28;20037;-46
2023/03/19 12:31:18;;;;;;;21.80;14.18;;;11.50;99.90;;;;;;20998296;28;20033;-48
2023/03/19 12:41:22;;;;;;;19.60;12.82;;;11.10;99.90;;;;;;20995356;28;20048;-50
2023/03/19 12:51:33;;;;;;;21.00;14.43;;;11.20;99.90;;;;;;20996824;28;20035;-49
2023/03/19 13:01:49;;;;;;;19.85;15.10;;;11.30;99.90;;;;;;20996028;28;20028;-50
2023/03/19 13:12:06;;;;;;;21.83;14.65;;;11.20;99.90;;;;;;20994825;28;20441;-47
2023/03/19 13:22:18;;;;;;;21.60;14.70;;;10.90;99.90;;;;;;20994246;28;20036;-48
2023/03/19 13:32:41;;;;;;;20.83;13.65;;;10.50;99.90;;;;;;20993043;28;20098;-51
2023/03/19 13:42:43;;;;;;;19.20;14.05;;;11.00;99.90;;;;;;20991939;28;20040;-47
2023/03/19 13:52:45;;;;;;;20.60;14.57;;;11.30;99.90;;;;;;20990934;28;20142;-49
2023/03/19 14:02:47;;;;;;;18.83;13.70;;;11.10;99.90;;;;;;20990536;28;20029;-49
2023/03/19 14:12:49;;;;;;;21.52;14.93;;;11.10;99.90;;;;;;20990012;28;20048;-49
2023/03/19 14:23:20;;;;;;;19.20;13.88;;;11.30;99.90;;;;;;20989471;28;20094;-50
2023/03/19 14:33:41;;;;;;;19.83;14.30;;;11.10;99.90;;;;;;20989244;28;20447;-50
2023/03/19 14:43:57;;;;;;;22.08;15.02;;;10.60;99.90;;;;;;20987998;28;20036;-47
2023/03/19 14:54:29;;;;;;;19.25;13.68;;;10.10;99.90;;;;;;20986281;28;20449;-48
2023/03/19 15:04:31;;;;;;;22.48;14.02;;;9.80;99.90;;;;;;20982953;28;20041;-48
2023/03/19 15:14:51;;;;;;;19.40;14.18;;;9.70;99.90;;;;;;20986020;28;20099;-49
2023/03/19 15:24:53;;;;;;;;;;;9.20;99.90;;;;;;20986228;28;20028;-49
2023/03/19 15:34:57;;;;;;;;;;;8.90;99.90;;;;;;20981858;28;19912;-50
2023/03/19 15:45:11;;;;;;;24.10;15.93;;;8.60;99.90;;;;;;20984772;28;19973;-48
2023/03/19 15:55:15;;;;;;;25.10;15.65;;;8.10;99.90;;;;;;20984835;28;20051;-50
2023/03/19 16:05:30;;;;;;;23.92;15.60;;;7.70;99.90;;;;;;20985179;28;20025;-45
2023/03/19 16:15:45;;;;;;;24.25;16.95;;;7.20;99.90;;;;;;20989835;28;20071;-49
2023/03/19 16:25:47;;;;;;;28.80;17.83;;;6.80;99.90;;;;;;20981043;28;20415;-47
2023/03/19 16:35:51;;;;;;;26.17;17.48;;;6.60;99.90;;;;;;20980210;28;20028;-47
2023/03/19 16:46:04;;;;;;;27.75;17.95;;;6.50;99.90;;;;;;20995249;28;20025;-48
2023/03/19 16:56:10;;;;;;;29.08;18.83;;;6.40;99.90;;;;;;20996114;28;20071;-49
2023/03/19 17:06:12;;;;;;;29.17;18.75;;;6.20;99.90;;;;;;20996330;28;20089;-46
2023/03/19 17:16:14;;;;;;;30.75;18.80;;;5.90;99.90;;;;;;20994905;28;20079;-46
2023/03/19 17:26:20;;;;;;;31.70;20.95;;;5.80;99.90;;;;;;20993920;28;20029;-46
2023/03/19 17:36:22;;;;;;;32.95;20.50;;;5.70;99.90;;;;;;20994467;28;20124;-45
2023/03/19 17:46:26;;;;;;;35.85;20.25;;;5.50;99.90;;;;;;20992500;28;20032;-51
2023/03/19 17:56:27;;;;;;;35.08;21.92;;;5.30;99.90;;;;;;20991664;28;20105;-46
2023/03/19 18:06:35;;;;;;;32.75;21.58;;;5.30;99.90;;;;;;20991055;28;20036;-47
2023/03/19 18:16:36;;;;;;;42.00;25.83;;;5.20;99.90;;;;;;20989954;28;20037;-50
2023/03/19 18:26:38;;;;;;;42.00;24.33;;;5.20;99.90;;;;;;20989203;28;20029;-47
2023/03/19 18:36:40;;;;;;;39.88;24.20;;;5.10;99.90;;;;;;20988142;28;20114;-52
2023/03/19 18:46:42;;;;;;;38.97;25.85;;;5.10;99.90;;;;;;20988053;28;20054;-48
2023/03/19 18:56:44;;;;;;;47.90;27.50;;;5.20;99.90;;;;;;20987592;28;20157;-50
2023/03/19 19:06:46;;;;;;;42.53;27.17;;;5.10;99.90;;;;;;20986947;28;20036;-46
2023/03/19 19:16:49;;;;;;;41.85;27.80;;;5.10;99.90;;;;;;20980503;28;20029;-46
2023/03/19 19:26:52;;;;;;;52.35;31.85;;;5.00;99.90;;;;;;20918871;28;20040;-50
2023/03/19 19:36:57;;;;;;;49.55;28.77;;;5.00;99.90;;;;;;20986235;28;20094;-46
2023/03/19 19:47:00;;;;;;;40.38;24.17;;;5.00;99.90;;;;;;20987843;28;20556;-46
2023/03/19 19:57:02;;;;;;;43.80;25.33;;;4.90;99.90;;;;;;20983147;28;20041;-50
2023/03/19 20:07:04;;;;;;;39.90;25.00;;;4.90;99.90;;;;;;20952278;28;20037;-50
2023/03/19 20:17:05;;;;;;;38.60;24.58;;;4.90;99.90;;;;;;20999664;28;20029;-47
2023/03/19 20:27:22;;;;;;;40.42;24.83;;;4.80;99.90;;;;;;20999714;28;20048;-47
2023/03/19 20:37:23;;;;;;;52.22;28.88;;;4.70;99.90;;;;;;20998245;28;20032;-46
2023/03/19 20:47:25;;;;;;;51.08;28.83;;;4.60;99.90;;;;;;20997285;28;20024;-46
2023/03/19 20:57:29;;;;;;;53.03;30.80;;;4.30;99.90;;;;;;20993645;28;20036;-49
2023/03/19 21:07:33;;;;;;;54.80;30.83;;;4.00;99.90;;;;;;20996189;28;20053;-47
2023/03/19 21:17:35;;;;;;;52.72;30.30;;;4.00;99.90;;;;;;20995793;28;20566;-45
2023/03/19 21:27:36;;;;;;;48.45;28.42;;;4.10;99.90;;;;;;20994178;28;20029;-48
2023/03/19 21:37:40;;;;;;;47.50;28.45;;;4.20;99.90;;;;;;20993703;28;20052;-50
2023/03/19 21:47:41;;;;;;;47.05;28.23;;;4.20;99.90;;;;;;20990886;28;20053;-48
2023/03/19 21:57:44;;;;;;;44.00;24.90;;;4.10;99.90;;;;;;20991467;28;20523;-47
2023/03/19 22:07:46;;;;;;;41.95;23.60;;;3.60;99.90;;;;;;20990378;28;20059;-49
2023/03/19 22:17:49;;;;;;;48.03;26.05;;;3.00;99.90;;;;;;20989183;28;20039;-48
2023/03/19 22:27:50;;;;;;;44.38;24.95;;;2.60;99.90;;;;;;20989411;28;20097;-46
2023/03/19 22:37:52;;;;;;;49.42;26.67;;;2.70;99.90;;;;;;20988830;28;20028;-47
2023/03/19 22:47:55;;;;;;;42.90;26.05;;;2.60;99.90;;;;;;20988037;28;20470;-49
2023/03/19 22:57:57;;;;;;;46.42;26.25;;;2.50;99.90;;;;;;20988068;28;20074;-48
2023/03/19 23:08:00;;;;;;;49.70;27.38;;;2.30;99.90;;;;;;20987003;28;20110;-46
2023/03/19 23:18:02;;;;;;;50.95;28.00;;;1.90;99.90;;;;;;20987294;28;20086;-50
2023/03/19 23:28:04;;;;;;;51.17;27.52;;;1.80;99.90;;;;;;21006966;28;20032;-49
2023/03/19 23:38:07;;;;;;;56.55;29.45;;;1.60;99.90;;;;;;21013691;28;20028;-47
2023/03/19 23:48:11;;;;;;;55.88;29.52;;;1.50;99.90;;;;;;21014071;28;20039;-47
2023/03/19 23:58:13;;;;;;;47.55;26.58;;;1.40;99.90;;;;;;21012494;28;20414;-49
